Portada
METAR-TAF:

METAR-TAF

Aeroports :

Talara, Perú

latitud: 04-34S, longitud: 081-15W, altitud: 85 m

Observació

L'informe es va fer fa 10 hores i 43 minuts, a les 22:00 UTC
Vent 17 kt del Sud
Temperatura 23°C
Humitat 69%
Pressió 1007 hPa
Visibilitat 10 km o més
sense núvols per sota de 1500 mi sense presència de cumulonimbus.

METAR: SPYL 162200Z 18017KT CAVOK 23/17 Q1007 RMK TX30.6 BIRD HAZARD RWY 17/35 SCT060 PP000

Hora: 03:43 (08:43 UTC)

Pronòstic

L'informe es va fer fa 15 hores i 43 minuts, a les 17:00 UTC
Pronòstic vàlid del 16 a les 18 UTC al 17 a les 18 UTC
Vent 17 kt del Sud-Oest
Visibilitat 10 km o més
Cel ennuvolat a una alçada de 4000 ft
Evolucionant progressivament
l' 17 a les 11 UTC al 17 a les 13 UTC
Vent 17 kt del Sud-Est

TAF: SPYL 161700Z 1618/1718 22017KT 9999 BKN040 TX30/1619Z TN21/1711Z BECMG 1711/1713 14017KT

Observacions i pronòstics meteorològics de més de 4000 aeroports (METAR i TAF).

Les estacions disponibles són els punts grocs i vermells al mapa.

Posi el ratolí al punt desitjat per veure el nom de l'estació.

Feu clic per veure les observacions i els pronòstics meteorològics.

Per canviar el mapa: feu clic els botons verds amb una creu de color negre per apropar; al botó verd amb un guió per allunyar la imatge; o en les fletxes verdes per a mapes adjacents.


METAR-TAF: